DTTF/GAF METAR and TAF weather

Enter ICAO airport designator
Station Type Date Time Source
DTTF METAR 2019/11/18 11:00 UTC NOAA

DTTF 181100Z 23011KT 8000 NSC 14/M01 Q1017 NOSIG


Station Type Date Time Source
DTTF Decoded METAR 2019/11/18 11:00 UTC NOAA

Gafsa, Tunisia (DTTF) 34-25N 008-49E 314M
Nov 18, 2019 - 06:00 AM EST / 2019.11.18 1100 UTC
Wind: from the SW (230 degrees) at 13 MPH (11 KT):0
Visibility: 4 mile(s):0
Temperature: 57 F (14 C)
Dew Point: 30 F (-1 C)
Relative Humidity: 35%
Pressure (altimeter): 30.03 in. Hg (1017 hPa)
ob: DTTF 181100Z 23011KT 8000 NSC 14/M01 Q1017 NOSIG
cycle: 11

Station Type Date Time Source
DTTF TAF 2018/07/22 13:33 UTC NOAA

TAF DTTF 221200Z 2213/2322 22010KT 7000 NSC PROB30
TEMPO 2216/2220 4000 -TSRA FEW026CB

Example: see airport list